createdAt,value
2019-05-26T00:01:09.506Z,62.32
2019-05-26T00:03:39.289Z,62.32
2019-05-26T00:06:10.513Z,62.25
2019-05-26T00:08:40.142Z,62.34
2019-05-26T00:11:09.844Z,62.30
2019-05-26T00:13:39.386Z,62.22
2019-05-26T00:16:09.087Z,62.19
2019-05-26T00:18:38.650Z,62.13
2019-05-26T00:21:08.194Z,62.24
2019-05-26T00:23:38.751Z,62.31
2019-05-26T00:26:08.562Z,62.35
2019-05-26T00:28:38.143Z,62.28
2019-05-26T00:31:07.573Z,62.58
2019-05-26T00:33:37.096Z,62.20
2019-05-26T00:36:08.455Z,62.30
2019-05-26T00:38:37.974Z,62.32
2019-05-26T00:41:09.416Z,62.30
2019-05-26T00:43:39.983Z,62.48
2019-05-26T00:46:09.637Z,62.37
2019-05-26T00:48:42.616Z,62.41
2019-05-26T00:51:13.875Z,62.51
2019-05-26T00:53:43.407Z,62.66
2019-05-26T00:56:14.906Z,62.81
2019-05-26T00:58:46.171Z,62.81
2019-05-26T01:01:16.709Z,62.60
2019-05-26T01:03:46.483Z,62.93
2019-05-26T01:06:16.090Z,62.90
2019-05-26T01:08:47.074Z,62.79
2019-05-26T01:11:18.064Z,62.70
2019-05-26T01:13:48.644Z,62.82
2019-05-26T01:16:18.264Z,63.11
2019-05-26T01:18:50.351Z,63.49
2019-05-26T01:21:21.064Z,63.58
2019-05-26T01:23:50.505Z,63.59
2019-05-26T01:26:21.118Z,63.73
2019-05-26T01:28:52.632Z,64.02
2019-05-26T01:31:22.045Z,64.35
2019-05-26T01:33:53.421Z,64.71
2019-05-26T01:36:23.147Z,64.78
2019-05-26T01:38:54.895Z,64.81
2019-05-26T01:41:26.078Z,65.17
2019-05-26T01:43:56.689Z,65.28
2019-05-26T01:46:29.793Z,65.23
2019-05-26T01:49:00.692Z,65.53
2019-05-26T01:51:33.705Z,65.79
2019-05-26T01:54:05.031Z,65.92
2019-05-26T01:56:38.235Z,66.23
2019-05-26T01:59:07.695Z,66.10
2019-05-26T02:01:38.378Z,66.25
2019-05-26T02:04:08.142Z,66.46
2019-05-26T02:06:37.606Z,66.79
2019-05-26T02:09:08.898Z,66.46
2019-05-26T02:11:40.278Z,66.85
2019-05-26T02:14:14.535Z,66.60
2019-05-26T02:16:43.008Z,67.15
2019-05-26T02:19:12.823Z,67.29
2019-05-26T02:21:44.786Z,67.46
2019-05-26T02:24:14.316Z,67.25
2019-05-26T02:26:45.535Z,67.53
2019-05-26T02:29:19.021Z,67.34
2019-05-26T02:31:48.525Z,67.20
2019-05-26T02:34:19.998Z,67.15
2019-05-26T02:36:49.625Z,67.57
2019-05-26T02:39:22.222Z,67.57
2019-05-26T02:41:51.813Z,67.27
2019-05-26T02:44:21.335Z,67.32
2019-05-26T02:46:51.783Z,67.00
2019-05-26T02:49:21.552Z,67.14
2019-05-26T02:51:52.783Z,67.23
2019-05-26T02:54:25.116Z,66.63
2019-05-26T02:56:55.025Z,66.83
2019-05-26T02:59:24.583Z,66.80
2019-05-26T03:02:02.973Z,66.63
2019-05-26T03:04:26.489Z,66.36
2019-05-26T03:06:57.570Z,66.28
2019-05-26T03:09:29.295Z,66.19
2019-05-26T03:12:01.367Z,66.20
2019-05-26T03:14:33.850Z,66.00
2019-05-26T03:17:04.704Z,66.06
2019-05-26T03:19:36.293Z,65.94
2019-05-26T03:22:07.654Z,65.57
2019-05-26T03:24:40.187Z,65.70
2019-05-26T03:27:11.113Z,66.00
2019-05-26T03:29:40.730Z,65.95
2019-05-26T03:32:10.240Z,66.00
2019-05-26T03:34:41.007Z,65.81
2019-05-26T03:37:12.937Z,65.86
2019-05-26T03:39:46.350Z,65.91
2019-05-26T03:42:16.773Z,65.77
2019-05-26T03:44:48.021Z,66.11
2019-05-26T03:47:19.994Z,65.96
2019-05-26T03:49:49.722Z,66.13
2019-05-26T03:52:20.415Z,66.17
2019-05-26T03:54:49.940Z,66.01
2019-05-26T03:57:19.556Z,65.93
2019-05-26T03:59:52.003Z,66.20
2019-05-26T04:02:23.303Z,66.11
2019-05-26T04:04:53.175Z,66.20
2019-05-26T04:07:22.680Z,66.17
2019-05-26T04:10:04.775Z,65.94
2019-05-26T04:12:26.986Z,65.85
2019-05-26T04:14:56.421Z,65.98
2019-05-26T04:17:28.808Z,66.22
2019-05-26T04:19:59.075Z,66.35
2019-05-26T04:22:29.030Z,66.34
2019-05-26T04:24:59.154Z,66.38
2019-05-26T04:27:29.310Z,66.07
2019-05-26T04:29:58.942Z,66.06
2019-05-26T04:32:28.854Z,65.82
2019-05-26T04:34:58.939Z,65.81
2019-05-26T04:37:28.936Z,65.72
2019-05-26T04:39:59.001Z,65.52
2019-05-26T04:42:29.226Z,65.34
2019-05-26T04:44:58.818Z,65.07
2019-05-26T04:47:28.898Z,64.75
2019-05-26T04:49:58.968Z,64.51
2019-05-26T04:52:30.128Z,64.23
2019-05-26T04:55:00.520Z,64.46
2019-05-26T04:57:32.414Z,64.20
2019-05-26T05:00:02.149Z,64.02
2019-05-26T05:02:32.473Z,63.42
2019-05-26T05:05:03.662Z,63.48
2019-05-26T05:07:34.355Z,63.26
2019-05-26T05:10:05.107Z,62.76
2019-05-26T05:12:34.919Z,62.47
2019-05-26T05:15:04.730Z,62.03
2019-05-26T05:17:34.477Z,61.78
2019-05-26T05:20:04.129Z,61.68
2019-05-26T05:22:35.914Z,60.92
2019-05-26T05:25:13.886Z,61.13
2019-05-26T05:27:38.507Z,61.02
2019-05-26T05:30:10.993Z,60.84
2019-05-26T05:32:40.436Z,60.63
2019-05-26T05:37:42.512Z,59.64
2019-05-26T05:40:13.639Z,59.08
2019-05-26T05:42:45.162Z,58.73
2019-05-26T05:45:15.247Z,58.80
2019-05-26T05:47:44.756Z,58.54
2019-05-26T05:50:14.753Z,58.00
2019-05-26T05:52:47.187Z,57.35
2019-05-26T05:55:16.928Z,57.39
2019-05-26T05:57:47.533Z,57.27
2019-05-26T06:00:18.764Z,57.63
2019-05-26T06:02:50.367Z,57.41
2019-05-26T06:05:21.351Z,57.42
2019-05-26T06:07:52.429Z,57.55
2019-05-26T06:10:23.356Z,57.01
2019-05-26T06:12:52.826Z,57.22
2019-05-26T06:15:23.467Z,56.91
2019-05-26T06:17:53.456Z,57.35
2019-05-26T06:20:23.004Z,56.83
2019-05-26T06:22:52.565Z,56.59
2019-05-26T06:25:21.969Z,56.65
2019-05-26T06:27:51.394Z,56.12
2019-05-26T06:30:22.480Z,55.81
2019-05-26T06:32:52.020Z,55.35
2019-05-26T06:35:24.187Z,56.12
2019-05-26T06:37:53.829Z,56.31
2019-05-26T06:40:23.311Z,56.01
2019-05-26T06:42:52.922Z,55.99
2019-05-26T06:45:23.356Z,56.00
2019-05-26T06:47:52.830Z,56.25
2019-05-26T06:50:23.336Z,56.16
2019-05-26T06:52:52.882Z,56.16
2019-05-26T06:55:22.408Z,56.29
2019-05-26T06:57:52.389Z,56.31
2019-05-26T07:00:22.531Z,55.71
2019-05-26T07:02:51.947Z,56.35
2019-05-26T07:05:21.413Z,55.39
2019-05-26T07:07:51.293Z,55.12
2019-05-26T07:10:20.713Z,54.65
2019-05-26T07:12:50.196Z,53.08
2019-05-26T07:15:20.352Z,52.98
2019-05-26T07:17:50.031Z,52.71
2019-05-26T07:20:19.494Z,53.34
2019-05-26T07:22:49.264Z,52.51
2019-05-26T07:25:18.863Z,53.56
2019-05-26T07:27:48.504Z,53.46
2019-05-26T07:30:23.394Z,53.87
2019-05-26T07:32:51.279Z,52.95
2019-05-26T07:35:20.836Z,52.92
2019-05-26T07:37:50.419Z,53.92
2019-05-26T07:40:20.070Z,53.56
2019-05-26T07:42:49.506Z,53.60
2019-05-26T07:45:19.263Z,53.46
2019-05-26T07:47:48.785Z,53.75
2019-05-26T07:50:18.254Z,53.75
2019-05-26T07:52:47.802Z,53.88
2019-05-26T07:55:17.464Z,53.64
2019-05-26T07:57:46.978Z,53.90
2019-05-26T08:00:17.210Z,54.33
2019-05-26T08:02:49.541Z,53.87
2019-05-26T08:05:18.999Z,53.78
2019-05-26T08:07:48.453Z,53.35
2019-05-26T08:10:18.324Z,53.07
2019-05-26T08:12:47.720Z,53.78
2019-05-26T08:15:17.359Z,54.01
2019-05-26T08:17:46.816Z,53.87
2019-05-26T08:20:17.150Z,53.52
2019-05-26T08:22:46.714Z,53.89
2019-05-26T08:25:17.333Z,53.16
2019-05-26T08:27:46.832Z,52.92
2019-05-26T08:30:16.398Z,53.04
2019-05-26T08:32:45.829Z,53.78
2019-05-26T08:35:15.687Z,52.98
2019-05-26T08:37:45.371Z,52.39
2019-05-26T08:40:18.584Z,53.06
2019-05-26T08:42:50.394Z,53.43
2019-05-26T08:45:22.051Z,53.39
2019-05-26T08:47:51.977Z,53.40
2019-05-26T08:50:22.190Z,53.92
2019-05-26T08:52:51.920Z,54.18
2019-05-26T08:55:22.841Z,53.98
2019-05-26T08:57:52.326Z,53.94
2019-05-26T09:00:23.991Z,53.71
2019-05-26T09:02:53.510Z,53.80
2019-05-26T09:05:23.231Z,55.02
2019-05-26T09:07:52.778Z,54.93
2019-05-26T09:10:22.516Z,55.01
2019-05-26T09:13:00.774Z,55.57
2019-05-26T09:15:23.726Z,55.96
2019-05-26T09:17:53.215Z,55.78
2019-05-26T09:20:22.821Z,56.54
2019-05-26T09:22:52.402Z,57.06
2019-05-26T09:25:22.112Z,56.56
2019-05-26T09:27:51.573Z,57.09
2019-05-26T09:30:21.894Z,57.52
2019-05-26T09:32:51.359Z,58.09
2019-05-26T09:35:20.879Z,58.60
2019-05-26T09:37:50.474Z,58.59
2019-05-26T09:40:20.797Z,58.22
2019-05-26T09:42:50.206Z,57.82
2019-05-26T09:45:19.939Z,58.36
2019-05-26T09:47:49.399Z,58.16
2019-05-26T09:50:19.031Z,58.40
2019-05-26T09:52:48.757Z,58.18
2019-05-26T09:55:18.479Z,58.50
2019-05-26T09:57:47.967Z,58.32
2019-05-26T10:00:18.184Z,57.61
2019-05-26T10:02:48.002Z,57.30
2019-05-26T10:05:17.665Z,58.10
2019-05-26T10:07:47.121Z,58.52
2019-05-26T10:10:16.936Z,58.44
2019-05-26T10:12:47.549Z,58.44
2019-05-26T10:15:18.967Z,59.19
2019-05-26T10:17:48.817Z,60.16
2019-05-26T10:20:19.763Z,61.19
2019-05-26T10:22:49.264Z,62.67
2019-05-26T10:25:18.795Z,63.48
2019-05-26T10:27:48.364Z,64.88
2019-05-26T10:30:20.191Z,65.61
2019-05-26T10:32:49.629Z,66.48
2019-05-26T10:35:19.183Z,66.79
2019-05-26T10:37:48.806Z,67.24
2019-05-26T10:40:18.564Z,67.33
2019-05-26T10:42:47.973Z,67.64
2019-05-26T10:45:17.947Z,67.51
2019-05-26T10:47:50.428Z,67.20
2019-05-26T10:50:19.990Z,66.96
2019-05-26T10:52:49.520Z,66.36
2019-05-26T10:55:18.955Z,65.97
2019-05-26T10:57:48.413Z,66.11
2019-05-26T11:00:18.709Z,65.89
2019-05-26T11:02:49.195Z,66.03
2019-05-26T11:05:18.910Z,67.16
2019-05-26T11:07:48.556Z,67.28
2019-05-26T11:10:18.388Z,67.44
2019-05-26T11:12:48.898Z,68.90
2019-05-26T11:15:19.725Z,68.93
2019-05-26T11:17:49.616Z,69.13
2019-05-26T11:20:20.309Z,69.60
2019-05-26T11:22:49.823Z,69.59
2019-05-26T11:25:19.280Z,70.12
2019-05-26T11:27:48.726Z,70.30
2019-05-26T11:30:18.682Z,69.59
2019-05-26T11:32:48.243Z,69.65
2019-05-26T11:35:18.448Z,69.88
2019-05-26T11:37:48.027Z,69.06
2019-05-26T11:40:18.034Z,67.91
2019-05-26T11:42:47.491Z,67.09
2019-05-26T11:45:17.412Z,66.37
2019-05-26T11:47:46.809Z,65.81
2019-05-26T11:50:17.323Z,65.96
2019-05-26T11:52:47.534Z,64.35
2019-05-26T11:55:17.025Z,64.44
2019-05-26T11:57:46.523Z,63.53
2019-05-26T12:00:18.841Z,63.16
2019-05-26T12:02:48.330Z,62.54
2019-05-26T12:05:18.160Z,61.59
2019-05-26T12:07:47.901Z,61.09
2019-05-26T12:10:17.680Z,59.89
2019-05-26T12:12:47.090Z,59.51
2019-05-26T12:15:17.356Z,59.92
2019-05-26T12:17:46.768Z,59.16
2019-05-26T12:20:16.707Z,58.75
2019-05-26T12:22:46.620Z,58.99
2019-05-26T12:25:16.416Z,58.52
2019-05-26T12:27:46.227Z,58.51
2019-05-26T12:30:16.425Z,58.14
2019-05-26T12:32:45.949Z,57.68
2019-05-26T12:35:15.903Z,57.63
2019-05-26T12:37:48.271Z,56.97
2019-05-26T12:40:16.967Z,56.83
2019-05-26T12:42:46.998Z,57.03
2019-05-26T12:45:19.539Z,56.54
2019-05-26T12:47:49.707Z,56.34
2019-05-26T12:50:19.386Z,55.17
2019-05-26T12:52:48.878Z,55.38
2019-05-26T12:55:18.312Z,54.10
2019-05-26T12:57:47.710Z,53.67
2019-05-26T13:00:17.574Z,53.40
2019-05-26T13:02:47.092Z,53.56
2019-05-26T13:05:17.040Z,52.55
2019-05-26T13:07:46.586Z,52.48
2019-05-26T13:10:17.296Z,51.13
2019-05-26T13:12:46.789Z,51.54
2019-05-26T13:15:16.729Z,51.35
2019-05-26T13:17:46.135Z,50.58
2019-05-26T13:20:16.732Z,50.71
2019-05-26T13:22:46.172Z,49.63
2019-05-26T13:25:16.313Z,50.27
2019-05-26T13:27:45.872Z,50.85
2019-05-26T13:30:16.737Z,51.42
2019-05-26T13:32:46.156Z,52.13
2019-05-26T13:35:15.721Z,52.37
2019-05-26T13:37:45.247Z,52.80
2019-05-26T13:40:16.617Z,52.88
2019-05-26T13:42:46.068Z,52.96
2019-05-26T13:45:22.775Z,52.56
2019-05-26T13:47:48.549Z,52.97
2019-05-26T13:50:18.892Z,51.90
2019-05-26T13:52:48.479Z,51.21
2019-05-26T13:55:20.466Z,50.87
2019-05-26T13:57:49.956Z,50.14
2019-05-26T14:00:20.312Z,49.91
2019-05-26T14:02:49.840Z,49.36
2019-05-26T14:05:19.549Z,49.42
2019-05-26T14:07:50.777Z,49.50
2019-05-26T14:10:31.674Z,48.93
2019-05-26T14:13:01.070Z,49.25
2019-05-26T14:15:38.112Z,48.77
2019-05-26T14:18:02.691Z,49.24
2019-05-26T14:20:42.707Z,49.32
2019-05-26T14:23:13.015Z,49.57
2019-05-26T14:25:42.643Z,50.20
2019-05-26T14:28:12.085Z,50.40
2019-05-26T14:30:42.470Z,50.46
2019-05-26T14:33:12.402Z,50.23
2019-05-26T14:35:41.810Z,50.35
2019-05-26T14:38:11.365Z,50.42
2019-05-26T14:40:40.897Z,50.21
2019-05-26T14:43:11.823Z,49.82
2019-05-26T14:45:53.001Z,49.89
2019-05-26T14:48:12.525Z,50.20
2019-05-26T14:50:41.963Z,50.72
2019-05-26T14:53:11.447Z,51.26
2019-05-26T14:55:40.854Z,51.46
2019-05-26T14:58:16.294Z,50.96
2019-05-26T15:00:41.633Z,50.96
2019-05-26T15:03:11.068Z,50.76
2019-05-26T15:05:40.657Z,50.26
2019-05-26T15:08:10.198Z,50.09
2019-05-26T15:10:39.614Z,49.91
2019-05-26T15:13:09.220Z,49.77
2019-05-26T15:15:38.920Z,50.43
2019-05-26T15:18:08.485Z,50.44
2019-05-26T15:20:37.927Z,50.58
2019-05-26T15:23:07.412Z,50.45
2019-05-26T15:25:36.857Z,50.42
2019-05-26T15:28:06.271Z,50.52
2019-05-26T15:30:36.953Z,51.43
2019-05-26T15:33:06.400Z,51.38
2019-05-26T15:35:36.232Z,51.34
2019-05-26T15:38:05.776Z,50.87
2019-05-26T15:40:35.239Z,51.26
2019-05-26T15:43:04.936Z,51.01
2019-05-26T15:45:34.570Z,51.22
2019-05-26T15:48:04.010Z,51.21
2019-05-26T15:50:33.414Z,51.22
2019-05-26T15:53:03.026Z,51.17
2019-05-26T15:55:32.671Z,51.02
2019-05-26T15:58:02.144Z,51.27
2019-05-26T16:00:31.788Z,51.25
2019-05-26T16:03:02.583Z,51.53
2019-05-26T16:05:32.114Z,52.06
2019-05-26T16:08:01.639Z,51.88
2019-05-26T16:10:31.191Z,51.79
2019-05-26T16:13:00.696Z,51.91
2019-05-26T16:15:31.036Z,51.66
2019-05-26T16:18:02.370Z,51.82
2019-05-26T16:20:31.956Z,51.65
2019-05-26T16:23:01.488Z,51.78
2019-05-26T16:25:30.918Z,52.08
2019-05-26T16:28:00.533Z,52.32
2019-05-26T16:30:30.613Z,52.04
2019-05-26T16:33:00.653Z,51.72
2019-05-26T16:35:30.572Z,51.48
2019-05-26T16:38:00.769Z,51.88
2019-05-26T16:40:32.206Z,52.06
2019-05-26T16:43:01.700Z,52.47
2019-05-26T16:45:31.511Z,52.11
2019-05-26T16:48:00.997Z,52.57
2019-05-26T16:50:30.710Z,52.72
2019-05-26T16:53:00.606Z,52.83
2019-05-26T16:55:31.110Z,53.02
2019-05-26T16:58:00.566Z,53.69
2019-05-26T17:00:31.447Z,53.98
2019-05-26T17:03:00.944Z,55.29
2019-05-26T17:05:30.677Z,55.92
2019-05-26T17:08:00.780Z,56.65
2019-05-26T17:10:30.723Z,57.23
2019-05-26T17:13:00.734Z,58.19
2019-05-26T17:15:30.885Z,60.07
2019-05-26T17:18:00.875Z,60.56
2019-05-26T17:20:33.495Z,61.50
2019-05-26T17:23:03.109Z,61.71
2019-05-26T17:25:32.551Z,62.48
2019-05-26T17:28:03.177Z,63.35
2019-05-26T17:30:35.033Z,64.42
2019-05-26T17:33:04.430Z,65.09
2019-05-26T17:35:33.873Z,65.78
2019-05-26T17:38:03.386Z,67.25
2019-05-26T17:40:32.808Z,67.58
2019-05-26T17:43:02.608Z,67.88
2019-05-26T17:45:32.365Z,69.22
2019-05-26T17:48:01.885Z,70.52
2019-05-26T17:50:31.315Z,70.99
2019-05-26T17:53:01.072Z,71.87
2019-05-26T17:55:31.046Z,71.87
2019-05-26T17:58:01.078Z,71.89
2019-05-26T18:00:30.977Z,72.92
2019-05-26T18:03:00.884Z,72.92
2019-05-26T18:05:30.987Z,73.60
2019-05-26T18:08:01.153Z,75.21
2019-05-26T18:10:30.954Z,76.61
2019-05-26T18:13:00.923Z,78.00
2019-05-26T18:15:31.002Z,78.64
2019-05-26T18:18:00.863Z,79.25
2019-05-26T18:20:30.951Z,80.13
2019-05-26T18:23:01.130Z,81.02
2019-05-26T18:25:30.943Z,81.10
2019-05-26T18:28:00.883Z,81.74
2019-05-26T18:30:31.312Z,82.63
2019-05-26T18:33:00.893Z,82.99
2019-05-26T18:35:31.003Z,83.02
2019-05-26T18:38:01.120Z,83.67
2019-05-26T18:40:31.034Z,85.03
2019-05-26T18:43:00.990Z,85.66
2019-05-26T18:45:31.028Z,86.44
2019-05-26T18:48:03.385Z,86.02
2019-05-26T18:50:32.470Z,86.03
2019-05-26T18:53:02.112Z,86.35
2019-05-26T18:55:31.692Z,86.32
2019-05-26T18:58:01.291Z,86.80
2019-05-26T19:00:31.462Z,86.43
2019-05-26T19:03:01.121Z,86.08
2019-05-26T19:05:35.843Z,86.01
2019-05-26T19:08:02.241Z,86.03
2019-05-26T19:10:31.683Z,85.94
2019-05-26T19:13:01.105Z,85.49
2019-05-26T19:15:31.269Z,86.18
2019-05-26T19:18:01.206Z,86.73
2019-05-26T19:20:31.040Z,86.95
2019-05-26T19:23:01.052Z,87.03
2019-05-26T19:25:31.140Z,87.26
2019-05-26T19:28:01.074Z,87.32
2019-05-26T19:30:31.218Z,87.27
2019-05-26T19:33:01.178Z,88.13
2019-05-26T19:35:30.677Z,88.99
2019-05-26T19:38:01.131Z,89.73
2019-05-26T19:40:31.082Z,90.43
2019-05-26T19:43:01.096Z,90.03
2019-05-26T19:45:31.200Z,89.21
2019-05-26T19:48:01.235Z,88.36
2019-05-26T19:50:31.831Z,87.93
2019-05-26T19:53:07.174Z,87.65
2019-05-26T19:55:36.655Z,87.99
2019-05-26T19:58:06.273Z,88.00
2019-05-26T20:00:35.706Z,87.64
2019-05-26T20:03:05.996Z,87.09
2019-05-26T20:05:38.053Z,86.92
2019-05-26T20:08:07.806Z,86.73
2019-05-26T20:10:37.208Z,86.75
2019-05-26T20:13:06.666Z,86.96
2019-05-26T20:15:36.957Z,87.32
2019-05-26T20:18:08.545Z,86.97
2019-05-26T20:20:38.535Z,87.05
2019-05-26T20:23:09.779Z,86.69
2019-05-26T20:25:39.164Z,86.45
2019-05-26T20:28:08.689Z,85.85
2019-05-26T20:30:38.154Z,85.81
2019-05-26T20:33:07.600Z,85.42
2019-05-26T20:35:36.995Z,85.07
2019-05-26T20:38:06.493Z,85.40
2019-05-26T20:40:35.912Z,84.95
2019-05-26T20:43:05.495Z,84.78
2019-05-26T20:45:35.002Z,84.05
2019-05-26T20:48:04.411Z,83.89
2019-05-26T20:50:33.877Z,83.90
2019-05-26T20:53:03.685Z,83.48
2019-05-26T20:55:33.175Z,83.15
2019-05-26T20:58:02.911Z,82.82
2019-05-26T21:00:32.927Z,83.03
2019-05-26T21:03:02.422Z,82.58
2019-05-26T21:05:31.899Z,82.79
2019-05-26T21:08:01.466Z,82.40
2019-05-26T21:10:31.197Z,82.20
2019-05-26T21:13:01.210Z,82.50
2019-05-26T21:15:33.467Z,82.65
2019-05-26T21:18:02.909Z,82.30
2019-05-26T21:20:32.502Z,82.36
2019-05-26T21:23:02.061Z,82.40
2019-05-26T21:25:31.545Z,82.14
2019-05-26T21:28:01.257Z,82.41
2019-05-26T21:30:31.544Z,82.46
2019-05-26T21:33:01.277Z,82.87
2019-05-26T21:35:31.181Z,82.36
2019-05-26T21:38:01.467Z,82.69
2019-05-26T21:40:31.503Z,82.93
2019-05-26T21:43:01.272Z,83.08
2019-05-26T21:45:31.655Z,83.08
2019-05-26T21:48:01.616Z,82.76
2019-05-26T21:50:31.190Z,83.73
2019-05-26T21:53:01.399Z,84.17
2019-05-26T21:55:31.281Z,84.19
2019-05-26T21:58:01.334Z,84.14
2019-05-26T22:00:37.833Z,84.43
2019-05-26T22:03:07.678Z,85.30
2019-05-26T22:05:37.153Z,85.77
2019-05-26T22:08:06.762Z,86.05
2019-05-26T22:10:36.240Z,85.90
2019-05-26T22:13:05.888Z,85.83
2019-05-26T22:15:35.379Z,85.84
2019-05-26T22:18:04.974Z,85.72
2019-05-26T22:20:34.486Z,86.31
2019-05-26T22:23:04.170Z,86.42
2019-05-26T22:25:33.691Z,86.49
2019-05-26T22:28:03.171Z,86.25
2019-05-26T22:30:32.611Z,86.02
2019-05-26T22:33:02.040Z,85.80
2019-05-26T22:35:31.622Z,85.60
2019-05-26T22:38:01.494Z,86.02
2019-05-26T22:40:31.391Z,85.62
2019-05-26T22:43:01.345Z,85.07
2019-05-26T22:45:31.599Z,85.13
2019-05-26T22:48:01.376Z,85.19
2019-05-26T22:50:31.618Z,85.08
2019-05-26T22:53:01.593Z,85.50
2019-05-26T22:55:31.407Z,85.85
2019-05-26T22:58:01.460Z,85.85
2019-05-26T23:00:31.675Z,85.84
2019-05-26T23:03:01.509Z,86.04
2019-05-26T23:05:32.890Z,86.09
2019-05-26T23:08:02.518Z,86.71
2019-05-26T23:10:31.979Z,87.23
2019-05-26T23:13:01.421Z,87.33
2019-05-26T23:15:32.055Z,87.19
2019-05-26T23:18:01.542Z,87.19
2019-05-26T23:20:31.437Z,87.25
2019-05-26T23:23:01.606Z,86.91
2019-05-26T23:25:31.744Z,87.21
2019-05-26T23:28:01.467Z,87.03
2019-05-26T23:30:31.659Z,87.33
2019-05-26T23:33:01.435Z,86.76
2019-05-26T23:35:31.430Z,86.81
2019-05-26T23:38:01.666Z,86.40
2019-05-26T23:40:31.558Z,86.46
2019-05-26T23:43:01.977Z,86.20
2019-05-26T23:45:31.742Z,85.91
2019-05-26T23:48:01.493Z,85.99
2019-05-26T23:50:31.574Z,87.17
2019-05-26T23:53:01.749Z,87.58
2019-05-26T23:55:31.582Z,87.24
2019-05-26T23:58:01.499Z,86.73
